Time;durP1;ratioP1;P1;durP2;ratioP2;P2;SDS_P1;SDS_P2;PMS_P1;PMS_P2;Temp;Humidity;BMP_temperature;BMP_pressure;BME280_temperature;BME280_humidity;BME280_pressure;Samples;Min_cycle;Max_cycle;Signal;HPM_P1;HPM_P2
2022/05/29 00:02:07;;;;;;;10.63;2.60;;;6.50;90.20;;;;;;6121451;23;20451;-80
2022/05/29 00:04:35;;;;;;;7.70;2.45;;;6.50;90.40;;;;;;6120566;23;20050;-79
2022/05/29 00:07:03;;;;;;;11.95;3.85;;;6.40;90.60;;;;;;6119872;23;20550;-80
2022/05/29 00:09:39;;;;;;;8.25;2.45;;;6.40;90.90;;;;;;6120127;23;20481;-79
2022/05/29 00:12:08;;;;;;;7.15;2.60;;;6.40;90.70;;;;;;6122419;23;20781;-79
2022/05/29 00:14:36;;;;;;;7.93;2.45;;;6.30;90.70;;;;;;6120353;23;20036;-79
2022/05/29 00:17:04;;;;;;;11.77;3.50;;;6.30;90.90;;;;;;6121440;23;20394;-80
2022/05/29 00:19:31;;;;;;;5.90;2.40;;;6.30;91.40;;;;;;6119151;23;20142;-80
2022/05/29 00:21:57;;;;;;;9.10;2.80;;;6.20;91.60;;;;;;6120308;23;20105;-80
2022/05/29 00:24:24;;;;;;;11.23;3.08;;;6.20;91.70;;;;;;6120220;23;20030;-80
2022/05/29 00:26:51;;;;;;;9.60;3.42;;;6.20;92.00;;;;;;6121283;23;20032;-80
2022/05/29 00:29:18;;;;;;;14.30;3.30;;;6.20;91.90;;;;;;6119659;23;20027;-80
2022/05/29 00:31:51;;;;;;;;;;;6.20;91.80;;;;;;6120091;23;20525;-78
2022/05/29 00:34:18;;;;;;;11.80;2.70;;;6.20;91.90;;;;;;6118623;23;20033;-78
2022/05/29 00:36:44;;;;;;;12.88;3.97;;;6.20;91.80;;;;;;6119545;23;20034;-80
2022/05/29 00:39:15;;;;;;;13.15;3.25;;;6.10;92.10;;;;;;6120977;23;20723;-78
2022/05/29 00:41:42;;;;;;;13.10;4.03;;;6.20;92.60;;;;;;6121240;23;20574;-78
2022/05/29 00:44:14;;;;;;;10.85;3.92;;;6.20;92.60;;;;;;6119165;23;20114;-80
2022/05/29 00:47:11;;;;;;;14.68;3.10;;;6.20;92.90;;;;;;6119423;23;20113;-78
2022/05/29 00:49:39;;;;;;;12.80;3.75;;;6.30;93.20;;;;;;6119133;23;20030;-79
2022/05/29 00:52:23;;;;;;;8.60;3.13;;;6.30;93.50;;;;;;6120788;23;20029;-80
2022/05/29 00:54:58;;;;;;;9.70;3.30;;;6.40;93.70;;;;;;6117657;23;20033;-78
2022/05/29 00:57:29;;;;;;;9.23;3.13;;;6.50;93.90;;;;;;6120930;23;20106;-80
2022/05/29 00:59:59;;;;;;;13.15;3.60;;;6.50;94.10;;;;;;6120345;23;20027;-78
2022/05/29 01:02:26;;;;;;;12.77;3.33;;;6.60;93.80;;;;;;6118172;23;20340;-80
2022/05/29 01:04:53;;;;;;;15.75;3.95;;;6.60;94.00;;;;;;6117877;23;20031;-80
2022/05/29 01:07:22;;;;;;;11.35;3.13;;;6.70;93.90;;;;;;6120965;23;20027;-80
2022/05/29 01:09:49;;;;;;;11.82;3.08;;;6.70;93.70;;;;;;6121490;23;20037;-80
2022/05/29 01:12:53;;;;;;;11.63;2.97;;;6.70;93.30;;;;;;6118260;23;20034;-79
2022/05/29 01:15:29;;;;;;;;;;;6.70;93.00;;;;;;6122602;23;20023;-80
2022/05/29 01:18:07;;;;;;;10.07;2.90;;;6.70;93.20;;;;;;6120569;23;19928;-79
2022/05/29 01:20:52;;;;;;;14.32;3.15;;;6.70;93.10;;;;;;6121379;23;20061;-79
2022/05/29 01:23:34;;;;;;;11.60;3.40;;;6.70;92.90;;;;;;6121971;23;20033;-79
2022/05/29 01:26:13;;;;;;;12.60;2.92;;;6.80;93.50;;;;;;6120659;23;20031;-79
2022/05/29 01:28:54;;;;;;;15.50;3.20;;;6.80;93.50;;;;;;6122429;23;20165;-79
2022/05/29 01:31:47;;;;;;;13.48;2.92;;;6.80;93.70;;;;;;6122575;23;20030;-79
2022/05/29 01:34:26;;;;;;;12.63;3.42;;;6.80;94.00;;;;;;6122015;23;20032;-79
2022/05/29 01:36:59;;;;;;;11.27;3.40;;;6.90;93.80;;;;;;6119521;23;20500;-79
2022/05/29 01:39:38;;;;;;;12.45;3.47;;;7.00;93.70;;;;;;6120348;23;20033;-78
2022/05/29 01:42:23;;;;;;;14.98;3.83;;;7.00;93.80;;;;;;6121877;23;20141;-79
2022/05/29 01:45:00;;;;;;;10.93;3.30;;;7.10;93.80;;;;;;6120769;23;20033;-79
2022/05/29 01:48:01;;;;;;;20.45;3.55;;;7.10;93.80;;;;;;6121800;23;20030;-80
2022/05/29 01:50:37;;;;;;;15.27;3.83;;;7.20;94.10;;;;;;6122266;23;20027;-79
2022/05/29 01:53:16;;;;;;;12.43;3.70;;;7.30;94.30;;;;;;6121123;23;20445;-79
2022/05/29 01:55:53;;;;;;;14.98;3.95;;;7.30;94.90;;;;;;6125136;23;20489;-79
2022/05/29 01:58:43;;;;;;;12.63;4.40;;;7.40;95.10;;;;;;6128515;23;20230;-79
2022/05/29 02:01:12;;;;;;;13.23;4.28;;;7.40;95.30;;;;;;6134924;23;20715;-80
2022/05/29 02:03:49;;;;;;;17.17;4.70;;;7.50;95.40;;;;;;6139247;23;20048;-79
2022/05/29 02:06:23;;;;;;;11.70;4.20;;;7.60;96.00;;;;;;6131898;23;20824;-79
2022/05/29 02:08:56;;;;;;;16.95;4.30;;;7.60;95.90;;;;;;6124475;23;20029;-79
2022/05/29 02:11:28;;;;;;;14.88;4.85;;;7.60;96.00;;;;;;6122743;23;20037;-79
2022/05/29 02:14:04;;;;;;;13.17;4.57;;;7.60;95.80;;;;;;6123568;23;20789;-79
2022/05/29 02:16:43;;;;;;;12.85;4.45;;;7.70;95.80;;;;;;6122416;23;20026;-80
2022/05/29 02:19:19;;;;;;;18.35;4.32;;;7.70;96.00;;;;;;6124575;23;20078;-79
2022/05/29 02:21:56;;;;;;;12.70;4.32;;;7.70;95.80;;;;;;6122122;23;20049;-80
2022/05/29 02:24:29;;;;;;;18.75;4.32;;;7.70;95.50;;;;;;6123110;23;20385;-81
2022/05/29 02:27:30;;;;;;;17.03;5.30;;;7.70;95.50;;;;;;6122057;23;20033;-80
2022/05/29 02:29:58;;;;;;;23.00;4.72;;;7.60;95.90;;;;;;6096151;23;20473;-80
2022/05/29 02:32:38;;;;;;;17.13;4.72;;;7.60;96.20;;;;;;6122251;23;20105;-80
2022/05/29 02:35:22;;;;;;;40.72;4.90;;;7.70;96.60;;;;;;6122565;23;20037;-80
2022/05/29 02:37:58;;;;;;;17.27;4.60;;;7.70;97.10;;;;;;6132842;23;20134;-80
2022/05/29 02:40:36;;;;;;;31.23;5.05;;;7.70;97.20;;;;;;6132735;23;20057;-80
2022/05/29 02:43:14;;;;;;;14.82;4.28;;;7.70;97.60;;;;;;6121657;23;20030;-79
2022/05/29 02:46:05;;;;;;;24.17;4.50;;;7.80;97.60;;;;;;6121172;23;20026;-80
2022/05/29 02:48:52;;;;;;;21.00;3.78;;;7.80;97.80;;;;;;6122957;23;20467;-80
2022/05/29 02:51:31;;;;;;;13.18;3.50;;;7.80;97.80;;;;;;6119785;23;20110;-80
2022/05/29 02:53:58;;;;;;;14.52;2.85;;;7.80;97.70;;;;;;6121230;23;20026;-80
2022/05/29 02:56:25;;;;;;;8.40;2.63;;;7.80;97.70;;;;;;6122310;23;20022;-80
2022/05/29 02:58:54;;;;;;;12.15;3.15;;;7.80;97.70;;;;;;6121470;23;20030;-80
2022/05/29 03:01:38;;;;;;;15.18;3.20;;;7.80;97.90;;;;;;6121171;23;20030;-80
2022/05/29 03:04:39;;;;;;;10.23;2.95;;;7.80;97.80;;;;;;6121987;23;20497;-79
2022/05/29 03:07:14;;;;;;;8.93;2.60;;;7.90;97.90;;;;;;6121917;23;20030;-79
2022/05/29 03:10:02;;;;;;;13.30;2.50;;;7.80;97.90;;;;;;6121271;23;20023;-80
2022/05/29 03:12:36;;;;;;;11.88;2.72;;;7.80;97.80;;;;;;6129055;23;20417;-79
2022/05/29 03:15:11;;;;;;;8.48;2.30;;;7.80;98.10;;;;;;6121880;23;20027;-79
2022/05/29 03:17:47;;;;;;;9.63;2.28;;;7.80;98.10;;;;;;6122281;23;20513;-79
2022/05/29 03:20:29;;;;;;;12.23;2.28;;;7.80;98.10;;;;;;6122911;23;20021;-80
2022/05/29 03:23:09;;;;;;;12.63;2.30;;;7.80;98.00;;;;;;6120267;23;20547;-80
2022/05/29 03:25:44;;;;;;;12.32;2.33;;;7.90;98.00;;;;;;6121465;23;20113;-81
2022/05/29 03:28:22;;;;;;;7.53;2.15;;;7.80;98.00;;;;;;6121919;23;20022;-80
2022/05/29 03:30:50;;;;;;;4.70;1.90;;;7.80;98.30;;;;;;6122543;23;20026;-80
2022/05/29 03:33:17;;;;;;;6.25;2.08;;;7.90;98.20;;;;;;6121344;23;20034;-80
2022/05/29 03:36:03;;;;;;;11.77;2.30;;;7.90;98.50;;;;;;6122225;23;20022;-81
2022/05/29 03:38:30;;;;;;;7.00;2.28;;;7.90;98.70;;;;;;6121579;23;20026;-80
2022/05/29 03:40:57;;;;;;;12.52;2.58;;;7.90;98.70;;;;;;6122143;23;20435;-80
2022/05/29 03:43:24;;;;;;;6.72;2.10;;;8.00;98.80;;;;;;6115833;23;20056;-80
2022/05/29 03:45:50;;;;;;;6.32;2.00;;;8.00;98.80;;;;;;6121109;23;20030;-80
2022/05/29 03:48:17;;;;;;;8.15;2.13;;;8.00;98.90;;;;;;6120891;23;20314;-80
2022/05/29 03:50:44;;;;;;;8.13;1.90;;;8.00;98.80;;;;;;6121169;23;20026;-80
2022/05/29 03:53:11;;;;;;;6.75;1.92;;;7.90;98.60;;;;;;6120482;23;20034;-80
2022/05/29 03:55:38;;;;;;;5.75;2.30;;;7.90;98.70;;;;;;6122127;23;20466;-80
2022/05/29 03:58:04;;;;;;;10.38;2.30;;;8.00;98.70;;;;;;6121465;23;20378;-80
2022/05/29 04:00:31;;;;;;;6.57;2.53;;;8.00;98.70;;;;;;6121848;23;20022;-80
2022/05/29 04:02:58;;;;;;;9.45;2.10;;;8.00;98.90;;;;;;6120857;23;20031;-80
2022/05/29 04:05:25;;;;;;;9.73;2.50;;;8.00;98.80;;;;;;6122646;23;20130;-80
2022/05/29 04:13:28;;;;;;;10.65;2.50;;;8.20;99.30;;;;;;6121727;23;20046;-80
2022/05/29 04:15:55;;;;;;;15.18;2.50;;;8.20;99.30;;;;;;6121170;23;20028;-80
2022/05/29 04:18:22;;;;;;;6.25;2.17;;;8.20;99.10;;;;;;6121835;23;20461;-80
2022/05/29 04:20:52;;;;;;;9.27;2.22;;;8.10;98.90;;;;;;6122395;23;20462;-79
2022/05/29 04:23:19;;;;;;;6.10;2.15;;;8.10;98.70;;;;;;6123108;23;20070;-80
2022/05/29 04:25:46;;;;;;;6.95;2.25;;;8.10;98.70;;;;;;6122775;23;20060;-80
2022/05/29 04:28:13;;;;;;;10.10;2.30;;;8.10;98.70;;;;;;6121565;23;20030;-80
2022/05/29 04:30:40;;;;;;;17.33;3.03;;;8.20;98.80;;;;;;6121949;23;20374;-79
2022/05/29 04:33:07;;;;;;;8.65;3.35;;;8.20;99.00;;;;;;6122548;23;20026;-79
2022/05/29 04:35:39;;;;;;;12.73;3.00;;;8.30;99.10;;;;;;6122385;23;20062;-79
2022/05/29 04:38:06;;;;;;;11.88;3.15;;;8.30;99.00;;;;;;6120887;23;20031;-80
2022/05/29 04:40:35;;;;;;;13.10;3.47;;;8.30;99.10;;;;;;6121328;23;20073;-80
2022/05/29 04:43:02;;;;;;;24.70;4.65;;;8.30;99.10;;;;;;6122610;23;20062;-80
2022/05/29 04:45:29;;;;;;;14.25;3.50;;;8.30;99.10;;;;;;6122117;23;20034;-79
2022/05/29 04:47:56;;;;;;;13.65;3.42;;;8.30;99.10;;;;;;6121957;23;20036;-79
2022/05/29 04:50:22;;;;;;;15.27;4.20;;;8.30;99.20;;;;;;6123352;23;20089;-80
2022/05/29 04:52:50;;;;;;;21.17;4.38;;;8.40;99.10;;;;;;6119349;23;20681;-80
2022/05/29 04:55:18;;;;;;;19.10;4.50;;;8.40;99.10;;;;;;6122256;23;20049;-79
2022/05/29 04:57:45;;;;;;;16.70;4.28;;;8.40;99.20;;;;;;6122331;23;20033;-79
2022/05/29 05:00:12;;;;;;;10.95;4.22;;;8.50;99.30;;;;;;6121164;23;20125;-80
2022/05/29 05:02:39;;;;;;;21.35;4.57;;;8.50;99.40;;;;;;6121381;23;20532;-79
2022/05/29 05:05:07;;;;;;;13.07;4.53;;;8.50;99.40;;;;;;6122075;23;20028;-79
2022/05/29 05:07:35;;;;;;;14.23;4.40;;;8.60;99.30;;;;;;6122217;23;20553;-79
2022/05/29 05:10:10;;;;;;;24.13;4.78;;;8.60;99.30;;;;;;6121217;23;20141;-79
2022/05/29 05:12:38;;;;;;;20.15;4.70;;;8.60;99.30;;;;;;6122301;23;20045;-79
2022/05/29 05:15:08;;;;;;;15.07;4.72;;;8.50;99.10;;;;;;6121930;23;20335;-80
2022/05/29 05:17:35;;;;;;;13.60;3.92;;;8.50;99.00;;;;;;6120766;23;20026;-79
2022/05/29 05:20:03;;;;;;;15.00;4.18;;;8.50;98.90;;;;;;6121794;23;20556;-79
2022/05/29 05:22:30;;;;;;;18.25;4.25;;;8.50;98.70;;;;;;6120886;23;20035;-80
2022/05/29 05:24:57;;;;;;;19.50;4.40;;;8.50;98.60;;;;;;6119840;23;20022;-80
2022/05/29 05:27:23;;;;;;;17.85;4.35;;;8.50;98.40;;;;;;6121662;23;20868;-79
2022/05/29 05:29:50;;;;;;;26.42;5.80;;;8.60;98.40;;;;;;6120412;23;20057;-79
2022/05/29 05:32:17;;;;;;;20.42;4.80;;;8.70;98.60;;;;;;6121774;23;20036;-79
2022/05/29 05:34:44;;;;;;;28.63;6.03;;;8.70;98.70;;;;;;6119380;23;20037;-80
2022/05/29 05:37:12;;;;;;;31.58;5.78;;;8.70;98.70;;;;;;6119407;23;20026;-80
2022/05/29 05:39:39;;;;;;;29.27;5.75;;;8.80;98.90;;;;;;6118675;23;20033;-81
2022/05/29 05:42:06;;;;;;;20.20;4.75;;;8.80;98.90;;;;;;6122502;23;20037;-81
2022/05/29 05:44:33;;;;;;;18.08;4.97;;;8.80;98.90;;;;;;6121553;23;20032;-81
2022/05/29 05:46:59;;;;;;;20.90;4.90;;;8.80;99.10;;;;;;6121739;23;20300;-80
2022/05/29 05:49:28;;;;;;;16.85;4.22;;;8.90;99.20;;;;;;6121369;23;20026;-80
2022/05/29 05:51:58;;;;;;;27.77;4.85;;;8.90;99.20;;;;;;6123228;23;20419;-80
2022/05/29 05:54:30;;;;;;;30.63;4.75;;;9.00;99.40;;;;;;6123116;23;20026;-80
2022/05/29 05:56:56;;;;;;;17.75;4.63;;;9.10;99.30;;;;;;6121075;23;20019;-80
2022/05/29 05:59:23;;;;;;;15.70;4.30;;;9.20;99.50;;;;;;6121188;23;20031;-81
2022/05/29 06:01:50;;;;;;;31.20;6.10;;;9.30;99.70;;;;;;6121304;23;20030;-81
2022/05/29 06:04:16;;;;;;;27.65;6.18;;;9.40;99.80;;;;;;6122915;23;20081;-80
2022/05/29 06:06:43;;;;;;;31.25;5.35;;;9.50;99.70;;;;;;6129051;23;20037;-81
2022/05/29 06:09:10;;;;;;;28.70;5.60;;;9.60;99.80;;;;;;6117173;23;20749;-81
2022/05/29 06:11:39;;;;;;;19.73;4.55;;;9.60;99.70;;;;;;6121180;23;20086;-80
2022/05/29 06:14:07;;;;;;;18.15;3.80;;;9.70;99.70;;;;;;6121184;23;20411;-80
2022/05/29 06:16:35;;;;;;;10.48;3.50;;;9.70;99.50;;;;;;6122021;23;20030;-79
2022/05/29 06:19:02;;;;;;;9.50;3.20;;;9.80;99.30;;;;;;6121234;23;20448;-81
2022/05/29 06:21:29;;;;;;;13.27;3.40;;;9.90;99.10;;;;;;6121999;23;20806;-81
2022/05/29 06:23:56;;;;;;;9.40;2.78;;;10.00;99.00;;;;;;6120874;23;20460;-80
2022/05/29 06:26:22;;;;;;;10.60;3.00;;;10.10;98.70;;;;;;6119646;23;20031;-81
2022/05/29 06:28:49;;;;;;;13.35;3.13;;;10.10;98.30;;;;;;6119755;23;20033;-80
2022/05/29 06:31:16;;;;;;;10.40;3.00;;;10.20;97.90;;;;;;6120907;23;20568;-80
2022/05/29 06:33:43;;;;;;;17.08;3.53;;;10.30;97.70;;;;;;6127509;23;20073;-80
2022/05/29 06:36:12;;;;;;;16.63;3.97;;;10.40;97.80;;;;;;6121054;23;20045;-80
2022/05/29 06:38:39;;;;;;;14.35;3.50;;;10.50;98.10;;;;;;6120926;23;20109;-80
2022/05/29 06:41:08;;;;;;;13.20;3.45;;;10.50;97.70;;;;;;6121352;23;20035;-80
2022/05/29 06:43:36;;;;;;;10.23;3.00;;;10.60;97.40;;;;;;6121317;23;20643;-79
2022/05/29 06:46:04;;;;;;;12.20;3.65;;;10.60;97.10;;;;;;6121552;23;20032;-80
2022/05/29 06:48:33;;;;;;;16.75;3.83;;;10.50;96.20;;;;;;6115638;23;20585;-81
2022/05/29 06:51:08;;;;;;;32.45;5.47;;;10.60;96.30;;;;;;6117513;23;20026;-81
2022/05/29 06:53:35;;;;;;;12.80;3.22;;;10.70;97.10;;;;;;6120190;23;20022;-81
2022/05/29 06:56:03;;;;;;;24.48;3.80;;;10.80;96.80;;;;;;6121658;23;20030;-81
2022/05/29 06:58:30;;;;;;;24.92;4.03;;;10.80;96.60;;;;;;6120932;23;20025;-80
2022/05/29 07:07:01;;;;;;;12.02;3.00;;;10.80;95.90;;;;;;6123650;23;20026;-80
2022/05/29 07:09:40;;;;;;;21.33;3.92;;;10.80;95.20;;;;;;6124010;23;20030;-80
2022/05/29 07:12:19;;;;;;;24.10;3.42;;;10.90;95.40;;;;;;6123160;23;20039;-80
2022/05/29 07:14:50;;;;;;;21.63;3.17;;;10.90;95.00;;;;;;6129755;23;20029;-81
2022/05/29 07:17:18;;;;;;;25.90;4.03;;;10.90;95.50;;;;;;6130897;23;20030;-81
2022/05/29 07:19:45;;;;;;;14.35;2.85;;;11.00;95.60;;;;;;6131153;23;20528;-80
2022/05/29 07:22:12;;;;;;;11.02;2.78;;;11.10;95.10;;;;;;6158555;23;20034;-80
2022/05/29 07:24:40;;;;;;;11.88;2.67;;;11.10;94.00;;;;;;6125297;23;20469;-80
2022/05/29 07:27:07;;;;;;;16.00;2.85;;;11.30;93.90;;;;;;6123461;23;20044;-80
2022/05/29 07:29:35;;;;;;;17.58;2.67;;;11.30;92.10;;;;;;6123021;23;20030;-81
2022/05/29 07:32:03;;;;;;;14.82;2.63;;;11.40;92.80;;;;;;6122057;23;20041;-81
2022/05/29 07:34:30;;;;;;;6.82;2.50;;;11.60;93.20;;;;;;6121556;23;20030;-81
2022/05/29 07:37:09;;;;;;;15.77;2.50;;;11.70;93.10;;;;;;6123085;23;20033;-81
2022/05/29 07:39:47;;;;;;;12.52;2.33;;;11.70;92.30;;;;;;6122893;23;20097;-81
2022/05/29 07:45:01;;;;;;;10.85;2.22;;;11.90;90.60;;;;;;6122877;23;20030;-79
2022/05/29 07:47:34;;;;;;;14.30;2.20;;;11.80;90.00;;;;;;6122926;23;20037;-80
2022/05/29 07:50:01;;;;;;;10.68;1.92;;;11.70;89.90;;;;;;6121996;23;20118;-80
2022/05/29 07:52:27;;;;;;;11.18;2.40;;;11.60;88.30;;;;;;6123120;23;20030;-79
2022/05/29 07:54:54;;;;;;;10.00;2.33;;;11.50;90.60;;;;;;6122163;23;20036;-81
2022/05/29 07:57:21;;;;;;;8.32;2.25;;;11.40;90.20;;;;;;6121608;23;20033;-80
2022/05/29 07:59:47;;;;;;;7.28;2.00;;;11.40;90.80;;;;;;6122322;23;20369;-81
2022/05/29 08:02:14;;;;;;;9.63;2.30;;;11.40;91.00;;;;;;6145400;23;20062;-79
2022/05/29 08:04:42;;;;;;;10.63;2.40;;;11.50;91.20;;;;;;6122280;23;20055;-81
2022/05/29 08:07:10;;;;;;;10.57;2.10;;;11.70;91.70;;;;;;6122370;23;20346;-79
2022/05/29 08:09:37;;;;;;;13.25;1.90;;;11.90;91.20;;;;;;6123260;23;20033;-80
2022/05/29 08:12:04;;;;;;;9.10;1.77;;;12.10;90.50;;;;;;6123119;23;20027;-79
2022/05/29 08:14:32;;;;;;;10.32;1.67;;;12.30;88.20;;;;;;6123562;23;20031;-79
2022/05/29 08:16:59;;;;;;;9.07;2.17;;;12.50;87.20;;;;;;6122291;23;20230;-80
2022/05/29 08:19:26;;;;;;;10.18;1.90;;;12.70;88.00;;;;;;6120475;23;20026;-80
2022/05/29 08:21:52;;;;;;;7.70;1.75;;;12.70;85.50;;;;;;6122704;23;20818;-80
2022/05/29 08:30:43;;;;;;;8.98;2.00;;;13.70;78.40;;;;;;6122790;23;20053;-81
2022/05/29 08:33:13;;;;;;;5.05;1.70;;;14.00;73.30;;;;;;6121699;23;20524;-81
2022/05/29 08:35:44;;;;;;;5.53;1.30;;;14.10;70.90;;;;;;6122587;23;20022;-80
2022/05/29 08:38:13;;;;;;;7.15;1.58;;;13.90;73.00;;;;;;6120347;23;20028;-80
2022/05/29 08:40:47;;;;;;;10.88;1.50;;;13.70;74.90;;;;;;6122357;23;20026;-80
2022/05/29 08:43:31;;;;;;;8.07;1.23;;;13.60;73.50;;;;;;6120631;23;20041;-80
2022/05/29 08:46:04;;;;;;;6.93;1.60;;;13.60;72.90;;;;;;6113565;23;20462;-80
2022/05/29 08:48:32;;;;;;;12.60;2.13;;;13.60;75.30;;;;;;6121182;23;20069;-80
2022/05/29 08:51:16;;;;;;;9.25;1.77;;;13.60;75.20;;;;;;6120730;23;20097;-80
2022/05/29 08:54:13;;;;;;;5.78;1.80;;;13.40;75.20;;;;;;6119423;23;20985;-80
2022/05/29 08:57:10;;;;;;;5.70;1.20;;;13.20;73.40;;;;;;6121292;23;20026;-80
2022/05/29 08:59:49;;;;;;;7.93;1.40;;;12.90;72.20;;;;;;6120530;23;20026;-81
2022/05/29 09:02:43;;;;;;;6.78;1.27;;;12.40;75.30;;;;;;6121894;23;20024;-80
2022/05/29 09:05:40;;;;;;;5.97;1.52;;;12.20;77.70;;;;;;6121726;23;20479;-80
2022/05/29 09:08:17;;;;;;;7.05;1.40;;;12.10;81.50;;;;;;6121100;23;20032;-80
2022/05/29 09:10:46;;;;;;;5.93;1.42;;;11.90;81.90;;;;;;6122587;23;20101;-80
2022/05/29 09:13:19;;;;;;;6.18;1.30;;;11.60;83.50;;;;;;6120382;23;20105;-80
2022/05/29 09:15:52;;;;;;;7.18;1.30;;;11.40;85.10;;;;;;6121831;23;20798;-80
2022/05/29 09:18:26;;;;;;;6.43;1.33;;;11.20;86.80;;;;;;6121696;23;20434;-80
2022/05/29 09:21:05;;;;;;;8.05;1.45;;;11.10;88.10;;;;;;6123277;23;20033;-80
2022/05/29 09:23:43;;;;;;;5.80;1.10;;;11.20;89.10;;;;;;6122112;23;20744;-80
2022/05/29 09:26:15;;;;;;;9.50;2.28;;;11.30;90.40;;;;;;6122167;23;20366;-81
2022/05/29 09:28:42;;;;;;;10.48;1.88;;;11.50;90.90;;;;;;6122541;23;20052;-79
2022/05/29 09:31:12;;;;;;;7.45;1.63;;;11.90;92.40;;;;;;6121884;23;20033;-80
2022/05/29 09:33:40;;;;;;;6.68;1.40;;;12.40;90.00;;;;;;6135782;23;20032;-80
2022/05/29 09:36:34;;;;;;;4.15;1.30;;;12.80;89.90;;;;;;6123398;23;20034;-80
2022/05/29 09:39:30;;;;;;;6.88;1.40;;;13.00;83.60;;;;;;6121543;23;20105;-80
2022/05/29 09:42:12;;;;;;;4.15;0.90;;;13.00;83.80;;;;;;6107476;23;20090;-80
2022/05/29 09:44:38;;;;;;;9.05;0.90;;;13.20;84.70;;;;;;6121816;23;20109;-80
2022/05/29 09:50:11;;;;;;;3.78;0.80;;;12.90;75.60;;;;;;6121481;23;20036;-80
2022/05/29 09:52:41;;;;;;;6.30;1.40;;;12.90;77.30;;;;;;6122677;23;20027;-80
2022/05/29 09:55:25;;;;;;;7.60;1.05;;;12.90;77.20;;;;;;6123756;23;20065;-79
2022/05/29 09:57:58;;;;;;;3.10;1.02;;;12.80;76.80;;;;;;6122392;23;20030;-80
2022/05/29 10:00:35;;;;;;;5.30;1.17;;;12.50;76.80;;;;;;6145359;23;20049;-80
2022/05/29 10:03:05;;;;;;;8.07;1.70;;;12.10;78.80;;;;;;6123195;23;20105;-79
2022/05/29 10:05:35;;;;;;;8.20;1.35;;;12.30;79.40;;;;;;6123306;23;20032;-81
2022/05/29 10:08:28;;;;;;;6.32;1.30;;;12.50;81.30;;;;;;6121902;23;20056;-81
2022/05/29 10:10:54;;;;;;;6.00;1.40;;;12.70;81.00;;;;;;6120657;23;20082;-80
2022/05/29 10:13:39;;;;;;;5.72;1.40;;;13.10;78.10;;;;;;6120606;23;20034;-80
2022/05/29 10:16:08;;;;;;;6.05;1.25;;;13.40;74.40;;;;;;6117897;23;20026;-80
2022/05/29 10:18:37;;;;;;;7.03;1.60;;;13.40;74.60;;;;;;6121021;23;20026;-80
2022/05/29 10:21:08;;;;;;;3.47;1.23;;;13.50;76.10;;;;;;6122591;23;20030;-80
2022/05/29 10:23:36;;;;;;;5.78;1.52;;;13.60;73.30;;;;;;6122814;23;20110;-80
2022/05/29 10:26:12;;;;;;;5.60;1.58;;;13.70;75.90;;;;;;6122786;23;20093;-80
2022/05/29 10:28:41;;;;;;;6.13;1.50;;;14.10;74.20;;;;;;6122492;23;20031;-79
2022/05/29 10:31:13;;;;;;;5.55;1.70;;;14.10;73.10;;;;;;6123019;23;20030;-80
2022/05/29 10:34:06;;;;;;;6.90;1.58;;;14.20;71.30;;;;;;6123056;23;20026;-80
2022/05/29 10:36:34;;;;;;;6.72;1.30;;;14.10;70.80;;;;;;6122495;23;20023;-80
2022/05/29 10:39:17;;;;;;;7.60;1.35;;;14.00;72.20;;;;;;6123177;23;20430;-80
2022/05/29 10:41:44;;;;;;;11.32;1.60;;;13.60;73.10;;;;;;6125405;23;20037;-81
2022/05/29 10:44:14;;;;;;;7.88;1.80;;;13.30;73.20;;;;;;6122935;23;20033;-81
2022/05/29 10:46:55;;;;;;;11.45;1.90;;;13.10;73.70;;;;;;6123916;23;20023;-81
2022/05/29 10:49:26;;;;;;;8.30;1.58;;;13.00;74.00;;;;;;6123270;23;20031;-81
2022/05/29 10:52:14;;;;;;;7.55;1.73;;;13.00;72.80;;;;;;6124369;23;20098;-80
2022/05/29 10:55:09;;;;;;;7.72;1.60;;;13.00;73.50;;;;;;6123855;23;20093;-81
2022/05/29 10:57:51;;;;;;;8.93;2.10;;;12.70;73.60;;;;;;6123987;23;20037;-80
2022/05/29 11:00:37;;;;;;;5.97;1.48;;;12.70;75.60;;;;;;6118900;23;20133;-80
2022/05/29 11:03:50;;;;;;;10.18;2.00;;;12.90;73.30;;;;;;6121621;23;20031;-80
2022/05/29 11:06:44;;;;;;;9.23;1.60;;;13.00;74.30;;;;;;6123033;23;20402;-80
2022/05/29 11:09:11;;;;;;;9.20;1.75;;;13.10;74.70;;;;;;6124321;23;20031;-81
2022/05/29 11:12:03;;;;;;;10.68;2.00;;;13.30;73.90;;;;;;6122286;23;20098;-80
2022/05/29 11:14:39;;;;;;;8.77;1.60;;;13.40;71.00;;;;;;6122206;23;20027;-78
2022/05/29 11:17:26;;;;;;;8.27;1.90;;;13.40;71.40;;;;;;6124330;23;20078;-80
2022/05/29 11:20:41;;;;;;;8.65;1.80;;;13.30;73.20;;;;;;6124881;23;20033;-79
2022/05/29 11:23:20;;;;;;;7.10;1.65;;;13.20;72.90;;;;;;6111010;23;20030;-79
2022/05/29 11:25:58;;;;;;;10.88;1.60;;;13.20;73.90;;;;;;6125162;23;20022;-79
2022/05/29 11:28:51;;;;;;;11.98;1.73;;;13.10;74.40;;;;;;6122735;23;20822;-79
2022/05/29 11:31:47;;;;;;;9.50;1.50;;;13.20;74.30;;;;;;6123553;23;20041;-79
2022/05/29 11:34:39;;;;;;;8.27;1.52;;;13.50;71.60;;;;;;6125050;23;20046;-79
2022/05/29 11:37:09;;;;;;;6.22;1.30;;;13.70;68.90;;;;;;6124387;23;20026;-79
2022/05/29 11:39:36;;;;;;;6.95;1.40;;;13.90;70.10;;;;;;6123142;23;20086;-80
2022/05/29 11:42:10;;;;;;;6.82;1.30;;;14.10;69.70;;;;;;6122270;23;20035;-80
2022/05/29 11:44:54;;;;;;;5.85;1.38;;;14.00;65.70;;;;;;6124175;23;20070;-80
2022/05/29 11:53:58;;;;;;;7.90;1.50;;;13.80;65.50;;;;;;6124471;23;20058;-80
2022/05/29 11:56:34;;;;;;;6.93;1.30;;;13.80;65.40;;;;;;6124438;23;20113;-79
2022/05/29 11:59:20;;;;;;;4.68;0.93;;;13.90;64.40;;;;;;6123582;23;20118;-80
2022/05/29 12:01:55;;;;;;;3.20;1.10;;;14.00;64.70;;;;;;6124551;23;20041;-79
2022/05/29 12:04:33;;;;;;;9.52;1.05;;;14.20;61.60;;;;;;6124591;23;20033;-80
2022/05/29 12:07:17;;;;;;;4.95;1.13;;;14.30;62.70;;;;;;6147197;23;20037;-79
2022/05/29 12:09:55;;;;;;;4.18;1.20;;;14.50;62.30;;;;;;6124527;23;20026;-79
2022/05/29 12:12:54;;;;;;;4.60;1.35;;;14.40;60.40;;;;;;6124557;23;20022;-79
2022/05/29 12:15:22;;;;;;;7.88;1.50;;;14.40;62.10;;;;;;6123054;23;20086;-80
2022/05/29 12:17:59;;;;;;;5.88;1.00;;;14.30;61.20;;;;;;6123776;23;20065;-79
2022/05/29 12:20:38;;;;;;;7.65;1.23;;;14.10;62.70;;;;;;6124519;23;20035;-79
2022/05/29 12:23:10;;;;;;;4.65;1.33;;;14.00;63.70;;;;;;6122799;23;20037;-79
2022/05/29 12:25:49;;;;;;;3.65;0.95;;;14.00;62.70;;;;;;6123514;23;20484;-79
2022/05/29 12:28:28;;;;;;;5.82;1.30;;;13.90;61.60;;;;;;6124859;23;20062;-79
2022/05/29 12:30:56;;;;;;;5.38;1.35;;;14.00;64.10;;;;;;6100128;23;20094;-80
2022/05/29 12:33:25;;;;;;;5.20;1.15;;;13.90;61.60;;;;;;6123696;23;20410;-79
2022/05/29 12:36:13;;;;;;;7.40;1.48;;;13.90;63.00;;;;;;6124149;23;20487;-80
2022/05/29 12:38:57;;;;;;;4.30;1.30;;;13.90;62.50;;;;;;6124705;23;20113;-79
2022/05/29 12:41:55;;;;;;;6.57;1.15;;;13.90;63.00;;;;;;6124207;23;20462;-79
2022/05/29 12:44:46;;;;;;;3.53;1.00;;;14.20;60.60;;;;;;6124397;23;20027;-79
2022/05/29 12:47:40;;;;;;;9.15;1.42;;;14.80;62.00;;;;;;6124777;23;20727;-80
2022/05/29 12:50:59;;;;;;;7.25;1.77;;;15.50;58.20;;;;;;6124699;23;20026;-80
2022/05/29 12:53:45;;;;;;;5.10;0.90;;;16.20;56.00;;;;;;6123404;23;20026;-79
2022/05/29 12:56:37;;;;;;;3.70;0.98;;;16.10;53.50;;;;;;6123818;23;20026;-80
2022/05/29 12:59:29;;;;;;;3.35;0.93;;;15.80;56.00;;;;;;6124218;23;20526;-78
2022/05/29 13:02:16;;;;;;;4.38;1.05;;;15.50;57.30;;;;;;6123864;23;20037;-80
2022/05/29 13:04:51;;;;;;;4.38;1.00;;;15.50;56.20;;;;;;6123682;23;20463;-79
2022/05/29 13:07:27;;;;;;;6.15;1.15;;;15.40;54.70;;;;;;6124438;23;20777;-79
2022/05/29 13:10:17;;;;;;;3.55;1.10;;;15.20;58.00;;;;;;6123025;23;20018;-80
2022/05/29 13:13:01;;;;;;;3.30;1.27;;;15.10;56.20;;;;;;6124676;23;20034;-79
2022/05/29 13:15:31;;;;;;;4.88;1.00;;;14.90;56.80;;;;;;6124360;23;20030;-79
2022/05/29 13:21:20;;;;;;;4.95;1.10;;;14.70;56.80;;;;;;6124960;23;20093;-79
2022/05/29 13:23:51;;;;;;;4.53;1.20;;;14.70;56.90;;;;;;6122845;23;20865;-79
2022/05/29 13:26:30;;;;;;;4.97;1.20;;;14.80;58.90;;;;;;6123901;23;20030;-79
2022/05/29 13:29:05;;;;;;;3.45;0.93;;;14.70;57.60;;;;;;6123337;23;20045;-80
2022/05/29 13:31:53;;;;;;;5.70;1.20;;;14.70;57.40;;;;;;6123340;23;20098;-79
2022/05/29 13:34:25;;;;;;;8.10;1.23;;;14.60;58.00;;;;;;6121865;23;20454;-79
2022/05/29 13:36:53;;;;;;;6.20;1.30;;;14.40;59.30;;;;;;6123737;23;20097;-80
2022/05/29 13:39:29;;;;;;;5.80;1.67;;;14.10;59.50;;;;;;6123740;23;20361;-79
2022/05/29 13:41:59;;;;;;;5.10;1.30;;;13.80;62.80;;;;;;6123864;23;20086;-79
2022/05/29 13:44:36;;;;;;;4.80;1.05;;;13.70;62.10;;;;;;6123510;23;20030;-79
2022/05/29 13:47:18;;;;;;;5.47;1.20;;;13.60;64.80;;;;;;6120955;23;20031;-79
2022/05/29 13:49:48;;;;;;;4.35;0.90;;;13.70;63.40;;;;;;6123891;23;20030;-79
2022/05/29 13:52:19;;;;;;;6.93;1.00;;;13.80;60.30;;;;;;6122915;23;20101;-79
2022/05/29 13:54:59;;;;;;;4.93;1.27;;;13.90;60.00;;;;;;6123976;23;20034;-80
2022/05/29 14:06:21;;;;;;;5.10;1.13;;;14.50;57.50;;;;;;6122926;23;19925;-80
2022/05/29 14:08:53;;;;;;;3.08;1.00;;;14.80;58.00;;;;;;6123834;23;20029;-79